createdAt,value
2024-02-27T00:06:55.274Z,8.23
2024-02-27T00:16:55.198Z,8.13
2024-02-27T00:26:55.212Z,8.06
2024-02-27T00:36:55.253Z,8.00
2024-02-27T00:46:55.238Z,7.94
2024-02-27T00:56:55.322Z,7.90
2024-02-27T01:06:55.473Z,7.88
2024-02-27T01:16:55.283Z,7.88
2024-02-27T01:26:55.355Z,7.88
2024-02-27T01:36:55.335Z,7.89
2024-02-27T01:46:55.297Z,7.90
2024-02-27T01:56:55.361Z,7.91
2024-02-27T02:06:55.365Z,7.94
2024-02-27T02:16:55.411Z,7.96
2024-02-27T02:26:55.384Z,7.98
2024-02-27T02:36:55.398Z,7.99
2024-02-27T02:46:55.381Z,7.98
2024-02-27T02:56:55.461Z,7.93
2024-02-27T03:06:55.516Z,7.85
2024-02-27T03:16:55.371Z,7.77
2024-02-27T03:26:54.453Z,7.70
2024-02-27T03:36:54.444Z,7.63
2024-02-27T03:46:54.415Z,7.56
2024-02-27T03:56:54.450Z,7.49
2024-02-27T04:06:54.568Z,7.43
2024-02-27T04:16:54.496Z,7.41
2024-02-27T04:26:54.503Z,7.39
2024-02-27T04:36:54.523Z,7.38
2024-02-27T04:46:56.895Z,7.37
2024-02-27T04:56:56.575Z,7.34
2024-02-27T05:06:56.684Z,7.31
2024-02-27T05:16:56.596Z,7.29
2024-02-27T05:26:56.615Z,7.28
2024-02-27T05:36:56.592Z,7.29
2024-02-27T05:46:56.648Z,7.29
2024-02-27T05:56:56.603Z,7.27
2024-02-27T06:06:56.769Z,7.26
2024-02-27T06:16:56.638Z,7.25
2024-02-27T06:26:56.669Z,7.23
2024-02-27T06:36:56.638Z,7.22
2024-02-27T06:46:56.659Z,7.22
2024-02-27T06:56:56.665Z,7.24
2024-02-27T07:06:56.902Z,7.29
2024-02-27T07:16:56.681Z,7.37
2024-02-27T07:26:56.728Z,7.46
2024-02-27T07:36:56.743Z,7.57
2024-02-27T07:46:56.757Z,7.75
2024-02-27T07:56:56.760Z,7.99
2024-02-27T08:06:56.884Z,8.31
2024-02-27T08:16:56.770Z,8.64
2024-02-27T08:26:59.522Z,8.94
2024-02-27T08:36:57.836Z,9.21
2024-02-27T08:46:57.850Z,9.46
2024-02-27T08:56:57.837Z,9.66
2024-02-27T09:06:57.910Z,9.82
2024-02-27T09:16:57.854Z,9.92
2024-02-27T09:26:57.844Z,9.96
2024-02-27T09:36:57.890Z,10.04
2024-02-27T09:46:57.903Z,10.26
2024-02-27T09:56:57.888Z,10.57
2024-02-27T10:06:58.041Z,10.90
2024-02-27T10:16:57.950Z,11.20
2024-02-27T10:26:57.971Z,11.50
2024-02-27T10:36:58.003Z,11.74
2024-02-27T10:46:57.983Z,11.85
2024-02-27T10:56:57.983Z,11.79
2024-02-27T11:06:58.187Z,11.74
2024-02-27T11:16:58.005Z,11.83
2024-02-27T11:26:58.048Z,11.89
2024-02-27T11:36:58.049Z,11.70
2024-02-27T11:46:58.035Z,11.35
2024-02-27T11:56:58.051Z,11.03
2024-02-27T12:06:58.273Z,10.77
2024-02-27T12:16:58.081Z,10.55
2024-02-27T12:26:58.076Z,10.37
2024-02-27T12:36:58.170Z,10.27
2024-02-27T12:46:58.115Z,10.22
2024-02-27T12:56:58.098Z,10.14
2024-02-27T13:06:58.265Z,10.08
2024-02-27T13:16:58.187Z,10.06
2024-02-27T13:26:58.182Z,10.08
2024-02-27T13:36:58.193Z,10.11
2024-02-27T13:46:58.201Z,10.10
2024-02-27T13:56:58.218Z,10.05
2024-02-27T14:06:58.405Z,10.01
2024-02-27T14:16:58.220Z,9.97
2024-02-27T14:26:58.226Z,9.94
2024-02-27T14:36:58.271Z,9.91
2024-02-27T14:46:58.269Z,9.90
2024-02-27T14:56:58.293Z,9.91
2024-02-27T15:06:58.430Z,9.92
2024-02-27T15:16:58.324Z,9.92
2024-02-27T15:26:58.361Z,9.91
2024-02-27T15:36:58.355Z,9.87
2024-02-27T15:46:58.381Z,9.82
2024-02-27T15:56:58.386Z,9.75
2024-02-27T16:06:58.467Z,9.65
2024-02-27T16:16:58.388Z,9.55
2024-02-27T16:26:58.400Z,9.43
2024-02-27T16:36:58.510Z,9.29
2024-02-27T16:46:58.419Z,9.14
2024-02-27T16:56:58.480Z,8.95
2024-02-27T17:06:58.601Z,8.75
2024-02-27T17:16:58.434Z,8.51
2024-02-27T17:26:58.517Z,8.27
2024-02-27T17:36:58.542Z,8.03
2024-02-27T17:46:58.498Z,7.79
2024-02-27T17:56:58.481Z,7.57
2024-02-27T18:06:58.689Z,7.39
2024-02-27T18:16:58.602Z,7.20
2024-02-27T18:26:58.514Z,7.02
2024-02-27T18:36:58.552Z,6.83
2024-02-27T18:46:58.550Z,6.64
2024-02-27T18:56:58.563Z,6.46
2024-02-27T19:06:58.676Z,6.28
2024-02-27T19:16:58.616Z,6.12
2024-02-27T19:26:58.575Z,5.95
2024-02-27T19:36:58.702Z,5.79
2024-02-27T19:46:58.617Z,5.65
2024-02-27T19:56:58.632Z,5.50
2024-02-27T20:06:58.700Z,5.36
2024-02-27T20:16:58.635Z,5.24
2024-02-27T20:26:58.684Z,5.13
2024-02-27T20:36:58.696Z,5.02
2024-02-27T20:46:58.663Z,4.90
2024-02-27T20:56:58.722Z,4.77
2024-02-27T21:06:58.747Z,4.62
2024-02-27T21:16:58.748Z,4.47
2024-02-27T21:26:58.780Z,4.33
2024-02-27T21:36:58.841Z,4.20
2024-02-27T21:46:58.776Z,4.08
2024-02-27T21:56:58.818Z,3.96
2024-02-27T22:06:58.823Z,3.82
2024-02-27T22:16:58.779Z,3.69
2024-02-27T22:26:58.822Z,3.56
2024-02-27T22:36:58.856Z,3.45
2024-02-27T22:46:58.835Z,3.38
2024-02-27T22:56:58.839Z,3.36
2024-02-27T23:06:58.917Z,3.33
2024-02-27T23:17:01.050Z,3.30
2024-02-27T23:27:00.876Z,3.24
2024-02-27T23:37:00.884Z,3.17
2024-02-27T23:47:00.907Z,3.09
2024-02-27T23:57:00.924Z,3.04
